createdAt,value
2022-11-15T00:01:06.628Z,0
2022-11-15T00:06:06.614Z,0
2022-11-15T00:11:06.645Z,0
2022-11-15T00:16:06.607Z,0
2022-11-15T00:21:06.626Z,0
2022-11-15T00:26:06.611Z,0
2022-11-15T00:31:06.640Z,0
2022-11-15T00:36:06.605Z,0
2022-11-15T00:41:09.520Z,0
2022-11-15T00:46:06.596Z,0
2022-11-15T00:51:06.644Z,0
2022-11-15T00:56:06.609Z,0
2022-11-15T01:01:06.715Z,0
2022-11-15T01:06:06.624Z,0
2022-11-15T01:11:06.607Z,0
2022-11-15T01:16:06.587Z,0
2022-11-15T01:21:06.604Z,0
2022-11-15T01:26:06.594Z,0
2022-11-15T01:31:06.599Z,0
2022-11-15T01:36:06.574Z,0
2022-11-15T01:41:06.582Z,0
2022-11-15T01:46:06.579Z,0
2022-11-15T01:51:06.627Z,0
2022-11-15T01:56:06.588Z,0
2022-11-15T02:01:06.635Z,0
2022-11-15T02:06:06.616Z,0
2022-11-15T02:11:06.616Z,0
2022-11-15T02:16:06.608Z,0
2022-11-15T02:21:06.553Z,0
2022-11-15T02:26:06.595Z,0
2022-11-15T02:31:06.618Z,0
2022-11-15T02:36:06.576Z,0
2022-11-15T02:41:06.569Z,0
2022-11-15T02:46:06.605Z,0
2022-11-15T02:51:06.598Z,0
2022-11-15T02:56:06.592Z,0
2022-11-15T03:01:06.636Z,0
2022-11-15T03:06:06.585Z,0
2022-11-15T03:11:06.565Z,0
2022-11-15T03:16:06.581Z,0
2022-11-15T03:21:06.588Z,0
2022-11-15T03:26:06.576Z,0
2022-11-15T03:31:06.598Z,0
2022-11-15T03:36:06.560Z,0
2022-11-15T03:41:06.580Z,0
2022-11-15T03:46:06.554Z,0
2022-11-15T03:51:06.571Z,0
2022-11-15T03:56:06.531Z,0
2022-11-15T04:01:06.610Z,0
2022-11-15T04:06:06.541Z,0
2022-11-15T04:11:06.574Z,0
2022-11-15T04:16:06.525Z,0
2022-11-15T04:21:06.547Z,0
2022-11-15T04:26:06.528Z,0
2022-11-15T04:31:06.572Z,0
2022-11-15T04:36:06.538Z,0
2022-11-15T04:41:06.560Z,0
2022-11-15T04:46:06.551Z,0
2022-11-15T04:51:06.547Z,0
2022-11-15T04:56:07.309Z,0
2022-11-15T05:01:07.422Z,0
2022-11-15T05:06:07.342Z,0
2022-11-15T05:11:07.375Z,0
2022-11-15T05:16:07.367Z,0
2022-11-15T05:21:07.331Z,0
2022-11-15T05:26:09.283Z,0
2022-11-15T05:31:07.338Z,0
2022-11-15T05:36:07.329Z,0
2022-11-15T05:41:07.348Z,0
2022-11-15T05:46:07.348Z,0
2022-11-15T05:51:07.457Z,0
2022-11-15T05:56:07.343Z,0
2022-11-15T06:01:07.342Z,0
2022-11-15T06:06:09.078Z,0
2022-11-15T06:11:07.342Z,0
2022-11-15T06:16:08.436Z,0
2022-11-15T06:21:08.296Z,0
2022-11-15T06:26:08.275Z,0
2022-11-15T06:31:08.306Z,0
2022-11-15T06:36:10.865Z,0
2022-11-15T06:41:08.265Z,0
2022-11-15T06:46:08.274Z,0
2022-11-15T06:51:08.280Z,1
2022-11-15T06:56:08.285Z,4
2022-11-15T07:01:08.302Z,7
2022-11-15T07:06:08.267Z,9
2022-11-15T07:11:08.273Z,19
2022-11-15T07:16:08.233Z,16
2022-11-15T07:21:08.233Z,16
2022-11-15T07:26:08.244Z,30
2022-11-15T07:31:08.302Z,38
2022-11-15T07:36:08.259Z,44
2022-11-15T07:41:08.240Z,58
2022-11-15T07:46:08.238Z,76
2022-11-15T07:51:12.842Z,74
2022-11-15T07:56:08.235Z,62
2022-11-15T08:01:08.425Z,74
2022-11-15T08:06:08.261Z,122
2022-11-15T08:11:08.268Z,201
2022-11-15T08:16:08.239Z,246
2022-11-15T08:21:08.267Z,208
2022-11-15T08:26:08.236Z,169
2022-11-15T08:31:08.307Z,234
2022-11-15T08:36:08.261Z,259
2022-11-15T08:41:08.263Z,270
2022-11-15T08:46:08.215Z,288
2022-11-15T08:51:08.253Z,293
2022-11-15T08:56:08.217Z,370
2022-11-15T09:01:08.268Z,372
2022-11-15T09:06:08.248Z,350
2022-11-15T09:11:08.246Z,394
2022-11-15T09:16:08.256Z,311
2022-11-15T09:21:08.190Z,359
2022-11-15T09:26:08.249Z,364
2022-11-15T09:31:08.291Z,393
2022-11-15T09:36:08.254Z,388
2022-11-15T09:41:08.240Z,385
2022-11-15T09:46:08.264Z,212
2022-11-15T09:51:08.485Z,218
2022-11-15T09:56:08.252Z,217
2022-11-15T10:01:08.274Z,94
2022-11-15T10:06:08.242Z,94
2022-11-15T10:16:08.209Z,98
2022-11-15T10:21:08.211Z,102
2022-11-15T10:26:08.237Z,110
2022-11-15T10:31:10.954Z,128
2022-11-15T10:36:08.226Z,149
2022-11-15T10:41:08.248Z,200
2022-11-15T10:46:24.808Z,189
2022-11-15T10:51:08.235Z,292
2022-11-15T10:56:08.199Z,293
2022-11-15T11:01:08.310Z,297
2022-11-15T11:06:08.202Z,302
2022-11-15T11:11:08.270Z,384
2022-11-15T11:16:08.242Z,387
2022-11-15T11:21:08.226Z,372
2022-11-15T11:26:08.208Z,282
2022-11-15T11:31:08.228Z,368
2022-11-15T11:36:08.230Z,369
2022-11-15T11:41:08.236Z,355
2022-11-15T11:46:08.765Z,355
2022-11-15T11:51:08.855Z,393
2022-11-15T11:56:08.803Z,416
2022-11-15T12:01:12.666Z,380
2022-11-15T12:06:08.780Z,410
2022-11-15T12:11:08.832Z,380
2022-11-15T12:16:10.338Z,384
2022-11-15T12:21:08.817Z,404
2022-11-15T12:26:08.792Z,460
2022-11-15T12:31:08.814Z,426
2022-11-15T12:36:08.812Z,434
2022-11-15T12:41:08.806Z,419
2022-11-15T12:46:08.789Z,457
2022-11-15T12:51:08.789Z,455
2022-11-15T12:56:08.810Z,445
2022-11-15T13:01:08.898Z,156
2022-11-15T13:06:08.788Z,215
2022-11-15T13:11:08.812Z,97
2022-11-15T13:16:08.790Z,317
2022-11-15T13:21:08.780Z,307
2022-11-15T13:26:08.804Z,144
2022-11-15T13:31:08.822Z,263
2022-11-15T13:36:08.777Z,65
2022-11-15T13:41:08.773Z,72
2022-11-15T13:46:08.822Z,69
2022-11-15T13:51:08.782Z,75
2022-11-15T13:56:08.795Z,107
2022-11-15T14:01:08.768Z,122
2022-11-15T14:06:08.772Z,124
2022-11-15T14:11:08.832Z,94
2022-11-15T14:16:08.781Z,57
2022-11-15T14:21:08.813Z,61
2022-11-15T14:26:11.964Z,66
2022-11-15T14:31:08.820Z,78
2022-11-15T14:36:08.798Z,66
2022-11-15T14:41:08.793Z,48
2022-11-15T14:46:08.772Z,30
2022-11-15T14:51:08.821Z,27
2022-11-15T14:56:08.778Z,20
2022-11-15T15:01:08.794Z,15
2022-11-15T15:06:11.287Z,16
2022-11-15T15:11:08.794Z,17
2022-11-15T15:16:08.797Z,10
2022-11-15T15:21:08.757Z,3
2022-11-15T15:26:08.722Z,0
2022-11-15T15:31:08.778Z,0
2022-11-15T15:36:08.725Z,0
2022-11-15T15:41:08.757Z,0
2022-11-15T15:46:08.774Z,0
2022-11-15T15:51:14.306Z,0
2022-11-15T15:56:08.789Z,0
2022-11-15T16:01:08.855Z,0
2022-11-15T16:06:08.787Z,0
2022-11-15T16:11:08.781Z,0
2022-11-15T16:16:08.767Z,0
2022-11-15T16:21:08.738Z,0
2022-11-15T16:26:08.793Z,0
2022-11-15T16:31:08.808Z,0
2022-11-15T16:36:08.756Z,0
2022-11-15T16:41:08.768Z,0
2022-11-15T16:46:12.503Z,0
2022-11-15T16:51:08.792Z,0
2022-11-15T16:56:08.770Z,0
2022-11-15T17:01:08.805Z,0
2022-11-15T17:06:08.760Z,0
2022-11-15T17:11:08.758Z,0
2022-11-15T17:16:08.755Z,0
2022-11-15T17:21:08.763Z,0
2022-11-15T17:26:28.138Z,0
2022-11-15T17:31:09.030Z,0
2022-11-15T17:36:09.016Z,0
2022-11-15T17:41:09.020Z,0
2022-11-15T17:46:09.017Z,0
2022-11-15T17:51:09.028Z,0
2022-11-15T17:56:08.995Z,0
2022-11-15T18:01:09.077Z,0
2022-11-15T18:06:08.988Z,0
2022-11-15T18:11:09.003Z,0
2022-11-15T18:16:08.975Z,0
2022-11-15T18:21:08.988Z,0
2022-11-15T18:26:09.004Z,0
2022-11-15T18:31:09.028Z,0
2022-11-15T18:36:09.068Z,0
2022-11-15T18:41:09.004Z,0
2022-11-15T18:46:08.993Z,0
2022-11-15T18:51:09.017Z,0
2022-11-15T18:56:09.003Z,0
2022-11-15T19:01:08.981Z,0
2022-11-15T19:06:08.987Z,0
2022-11-15T19:11:09.002Z,0
2022-11-15T19:16:08.969Z,0
2022-11-15T19:21:12.194Z,0
2022-11-15T19:26:08.994Z,0
2022-11-15T19:31:08.976Z,0
2022-11-15T19:36:08.983Z,0
2022-11-15T19:41:08.958Z,0
2022-11-15T19:46:08.954Z,0
2022-11-15T19:51:09.010Z,0
2022-11-15T19:56:08.970Z,0
2022-11-15T20:01:09.036Z,0
2022-11-15T20:06:08.981Z,0
2022-11-15T20:11:08.989Z,0
2022-11-15T20:16:08.959Z,0
2022-11-15T20:21:08.949Z,0
2022-11-15T20:26:08.945Z,0
2022-11-15T20:31:08.956Z,0
2022-11-15T20:36:08.943Z,0
2022-11-15T20:41:08.934Z,0
2022-11-15T20:46:08.943Z,0
2022-11-15T20:51:08.984Z,0
2022-11-15T20:56:08.928Z,0
2022-11-15T21:01:09.083Z,0
2022-11-15T21:06:08.945Z,0
2022-11-15T21:11:08.950Z,0
2022-11-15T21:16:08.933Z,0
2022-11-15T21:21:08.963Z,0
2022-11-15T21:26:08.960Z,0
2022-11-15T21:31:08.997Z,0
2022-11-15T21:36:08.951Z,0
2022-11-15T21:41:08.921Z,0
2022-11-15T21:46:08.921Z,0
2022-11-15T21:51:08.977Z,0
2022-11-15T21:56:08.935Z,0
2022-11-15T22:01:08.944Z,0
2022-11-15T22:06:11.807Z,0
2022-11-15T22:11:08.941Z,0
2022-11-15T22:16:08.966Z,0
2022-11-15T22:21:08.924Z,0
2022-11-15T22:26:08.916Z,0
2022-11-15T22:31:08.949Z,0
2022-11-15T22:36:08.954Z,0
2022-11-15T22:41:08.914Z,0
2022-11-15T22:46:08.899Z,0
2022-11-15T22:51:08.965Z,0
2022-11-15T22:56:08.943Z,0
2022-11-15T23:01:08.906Z,0
2022-11-15T23:06:08.919Z,0
2022-11-15T23:11:08.935Z,0
2022-11-15T23:16:08.917Z,0
2022-11-15T23:21:08.914Z,0
2022-11-15T23:26:08.912Z,0
2022-11-15T23:31:08.918Z,0
2022-11-15T23:36:08.927Z,0
2022-11-15T23:41:08.934Z,0
2022-11-15T23:46:08.918Z,0
2022-11-15T23:51:08.954Z,0
2022-11-15T23:56:08.917Z,0
